Big Bear Station Historical Data
Daily Summary for April 5, 2017 Units:  English    Metric   Both
« Previous Day
Next Day »
Daily Weekly Monthly Yearly Custom
  High: Low: Average:
Temperature: 65.3 °F 30.9 °F 46.5 °F
Dew Point: 35.4 °F 24.5 °F 29.5 °F
Humidity: 85 % 23 % 57 %
Wind Speed: 5.8 mph 0.0 mph 1.9 mph
Wind Gust: -999.0 mph - -
Wind:- - WSW
Pressure: 30.24 in 30.19 in -
Precipitation: 0.00 in    
Historical Graphs
 
 
Tabular Data for April 5, 2017
Time Temperature Dew Point Pressure Wind Wind Speed Wind Gust Humidity Rainfall Rate (Hourly)
00:12 35.6 °F 26.8 °F 30.22 in SSE 1.7 mph -999.0 mph 70 % 0 in
00:27 35.2 °F 27.7 °F 30.22 in South 1.7 mph -999.0 mph 74 % 0 in
00:42 34.9 °F 25.8 °F 30.22 in South 1.7 mph -999.0 mph 69 % 0 in
00:57 34.7 °F 25.6 °F 30.22 in South 1.7 mph -999.0 mph 69 % 0 in
01:12 34.5 °F 25.7 °F 30.22 in SSE 1.1 mph -999.0 mph 70 % 0 in
01:28 34.3 °F 25.9 °F 30.23 in Calm   -999.0 mph 71 % 0 in
01:43 34.2 °F 26.1 °F 30.22 in SSE 1.7 mph -999.0 mph 72 % 0 in
01:58 34.2 °F 25.4 °F 30.23 in SSE 1.7 mph -999.0 mph 70 % 0 in
02:13 33.6 °F 24.9 °F 30.22 in Calm   -999.0 mph 70 % 0 in
02:28 33.6 °F 24.5 °F 30.22 in SSE 1.7 mph -999.0 mph 69 % 0 in
02:44 33.3 °F 24.9 °F 30.21 in Calm   -999.0 mph 71 % 0 in
02:59 33.3 °F 26.2 °F 30.21 in SE 1.1 mph -999.0 mph 75 % 0 in
03:14 32.9 °F 25.5 °F 30.21 in South 1.7 mph -999.0 mph 74 % 0 in
03:29 32.7 °F 25.0 °F 30.21 in SSE 1.7 mph -999.0 mph 73 % 0 in
03:45 32.5 °F 25.1 °F 30.21 in South 1.7 mph -999.0 mph 74 % 0 in
04:00 32.5 °F 25.5 °F 30.21 in Calm   -999.0 mph 75 % 0 in
04:15 32.2 °F 25.5 °F 30.21 in SSE 1.7 mph -999.0 mph 76 % 0 in
04:30 32.0 °F 25.9 °F 30.21 in SSE 1.1 mph -999.0 mph 78 % 0 in
04:46 32.0 °F 25.9 °F 30.21 in Calm   -999.0 mph 78 % 0 in
05:01 32.0 °F 26.2 °F 30.21 in South 1.7 mph -999.0 mph 79 % 0 in
05:16 31.5 °F 26.3 °F 30.21 in Calm   -999.0 mph 81 % 0 in
05:31 31.5 °F 26.6 °F 30.22 in Calm   -999.0 mph 82 % 0 in
05:46 31.5 °F 26.6 °F 30.22 in South 1.1 mph -999.0 mph 82 % 0 in
06:02 31.1 °F 26.2 °F 30.22 in Calm   -999.0 mph 82 % 0 in
06:17 31.1 °F 26.0 °F 30.22 in Calm   -999.0 mph 81 % 0 in
06:32 30.9 °F 25.8 °F 30.23 in Calm   -999.0 mph 81 % 0 in
06:47 31.3 °F 26.4 °F 30.23 in Calm   -999.0 mph 82 % 0 in
07:03 31.3 °F 27.0 °F 30.24 in Calm   -999.0 mph 84 % 0 in
07:18 32.2 °F 27.9 °F 30.24 in Calm   -999.0 mph 84 % 0 in
07:33 32.2 °F 28.2 °F 30.24 in Calm   -999.0 mph 85 % 0 in
07:48 32.9 °F 28.6 °F 30.24 in Calm   -999.0 mph 84 % 0 in
08:04 33.4 °F 28.8 °F 30.24 in Calm   -999.0 mph 83 % 0 in
08:19 34.9 °F 30.3 °F 30.24 in Calm   -999.0 mph 83 % 0 in
08:34 37.2 °F 31.6 °F 30.24 in Calm   -999.0 mph 80 % 0 in
08:50 41.0 °F 28.6 °F 30.24 in NW 2.2 mph -999.0 mph 61 % 0 in
09:05 43.3 °F 31.5 °F 30.24 in NNW 2.2 mph -999.0 mph 63 % 0 in
09:20 44.8 °F 28.7 °F 30.24 in Calm   -999.0 mph 53 % 0 in
09:35 47.5 °F 28.8 °F 30.24 in NNW 2.7 mph -999.0 mph 48 % 0 in
09:50 49.8 °F 25.8 °F 30.24 in NW 2.7 mph -999.0 mph 39 % 0 in
10:06 51.1 °F 27.6 °F 30.24 in NNW 1.7 mph -999.0 mph 40 % 0 in
10:21 52.5 °F 28.9 °F 30.24 in NW 3.2 mph -999.0 mph 40 % 0 in
10:37 54.5 °F 27.4 °F 30.24 in NW 3.2 mph -999.0 mph 35 % 0 in
10:52 56.1 °F 29.5 °F 30.24 in WNW 3.2 mph -999.0 mph 36 % 0 in
11:07 58.8 °F 26.6 °F 30.24 in NW 4.2 mph -999.0 mph 29 % 0 in
11:22 60.1 °F 25.1 °F 30.24 in SSW 3.2 mph -999.0 mph 26 % 0 in
11:38 61.5 °F 30.6 °F 30.24 in NNW 3.7 mph -999.0 mph 31 % 0 in
11:53 61.7 °F 30.7 °F 30.24 in ESE 2.7 mph -999.0 mph 31 % 0 in
12:09 61.2 °F 29.5 °F 30.23 in East 1.7 mph -999.0 mph 30 % 0 in
12:24 63.1 °F 32.8 °F 30.23 in NNW 4.7 mph -999.0 mph 32 % 0 in
12:40 62.2 °F 32.0 °F 30.23 in NNW 3.2 mph -999.0 mph 32 % 0 in
12:55 63.9 °F 32.7 °F 30.22 in NW 4.2 mph -999.0 mph 31 % 0 in
13:10 64.0 °F 32.8 °F 30.22 in NW 4.2 mph -999.0 mph 31 % 0 in
13:25 64.2 °F 32.9 °F 30.22 in NNW 4.7 mph -999.0 mph 31 % 0 in
13:41 63.0 °F 31.9 °F 30.22 in NNW 4.2 mph -999.0 mph 31 % 0 in
13:56 64.2 °F 34.5 °F 30.22 in NNW 5.3 mph -999.0 mph 33 % 0 in
14:11 63.9 °F 33.5 °F 30.22 in NW 4.7 mph -999.0 mph 32 % 0 in
14:27 64.0 °F 34.3 °F 30.22 in NNW 5.8 mph -999.0 mph 33 % 0 in
14:42 63.1 °F 31.2 °F 30.22 in WNW 3.2 mph -999.0 mph 30 % 0 in
14:57 63.1 °F 31.2 °F 30.21 in NW 3.2 mph -999.0 mph 30 % 0 in
15:13 63.1 °F 31.2 °F 30.21 in NW 5.8 mph -999.0 mph 30 % 0 in
15:28 63.1 °F 30.3 °F 30.21 in NNW 4.2 mph -999.0 mph 29 % 0 in
15:43 63.5 °F 30.7 °F 30.21 in NW 4.7 mph -999.0 mph 29 % 0 in
15:59 62.1 °F 31.1 °F 30.21 in NW 4.2 mph -999.0 mph 31 % 0 in
16:14 62.6 °F 29.0 °F 30.21 in WNW 4.2 mph -999.0 mph 28 % 0 in
16:29 62.2 °F 29.5 °F 30.20 in North 4.7 mph -999.0 mph 29 % 0 in
16:44 61.7 °F 28.2 °F 30.20 in NNW 1.7 mph -999.0 mph 28 % 0 in
16:59 63.3 °F 26.9 °F 30.20 in NW 2.7 mph -999.0 mph 25 % 0 in
17:15 65.1 °F 27.4 °F 30.20 in WNW 2.7 mph -999.0 mph 24 % 0 in
17:30 65.3 °F 26.5 °F 30.20 in SSE 3.2 mph -999.0 mph 23 % 0 in
17:46 65.3 °F 27.6 °F 30.20 in NW 3.2 mph -999.0 mph 24 % 0 in
18:01 60.3 °F 26.2 °F 30.20 in NNW 1.7 mph -999.0 mph 27 % 0 in
18:16 59.0 °F 31.4 °F 30.20 in WNW 4.2 mph -999.0 mph 35 % 0 in
18:31 56.8 °F 31.5 °F 30.19 in SE 1.7 mph -999.0 mph 38 % 0 in
18:46 55.0 °F 34.0 °F 30.19 in WNW 1.7 mph -999.0 mph 45 % 0 in
19:02 53.1 °F 34.9 °F 30.19 in South 1.7 mph -999.0 mph 50 % 0 in
19:17 51.4 °F 34.8 °F 30.19 in SSW 1.1 mph -999.0 mph 53 % 0 in
19:32 50.0 °F 35.4 °F 30.20 in ENE 1.7 mph -999.0 mph 57 % 0 in
19:47 48.7 °F 35.0 °F 30.20 in SE 1.1 mph -999.0 mph 59 % 0 in
20:03 47.3 °F 34.9 °F 30.20 in Calm   -999.0 mph 62 % 0 in
20:18 46.2 °F 34.3 °F 30.21 in SSE 2.2 mph -999.0 mph 63 % 0 in
20:34 45.3 °F 34.2 °F 30.21 in SSW 1.7 mph -999.0 mph 65 % 0 in
20:49 44.4 °F 33.8 °F 30.21 in Calm   -999.0 mph 66 % 0 in
21:04 43.5 °F 34.0 °F 30.21 in Calm   -999.0 mph 69 % 0 in
21:19 42.6 °F 32.8 °F 30.22 in South 1.7 mph -999.0 mph 68 % 0 in
21:34 42.1 °F 32.7 °F 30.22 in South 2.2 mph -999.0 mph 69 % 0 in
21:50 41.5 °F 32.4 °F 30.22 in South 1.7 mph -999.0 mph 70 % 0 in
22:05 41.2 °F 33.2 °F 30.22 in Calm   -999.0 mph 73 % 0 in
22:20 40.8 °F 33.5 °F 30.22 in Calm   -999.0 mph 75 % 0 in
22:35 40.5 °F 32.2 °F 30.22 in Calm   -999.0 mph 72 % 0 in
22:51 39.9 °F 31.6 °F 30.22 in Calm   -999.0 mph 72 % 0 in
23:06 39.6 °F 32.7 °F 30.22 in Calm   -999.0 mph 76 % 0 in
23:21 39.0 °F 32.4 °F 30.22 in Calm   -999.0 mph 77 % 0 in
23:37 38.3 °F 31.4 °F 30.22 in Calm   -999.0 mph 76 % 0 in
23:52 38.1 °F 31.5 °F 30.22 in South 1.7 mph -999.0 mph 77 % 0 in
Big Bear CA Weather
Compliments of Weather Underground - 1.5 mb